createdAt,value
2023-09-08T00:02:29.577Z,87.89
2023-09-08T00:04:57.069Z,89.25
2023-09-08T00:07:24.181Z,89.89
2023-09-08T00:09:51.450Z,89.19
2023-09-08T00:12:18.758Z,89.32
2023-09-08T00:14:45.781Z,89.62
2023-09-08T00:17:12.953Z,89.21
2023-09-08T00:19:40.201Z,88.81
2023-09-08T00:22:07.530Z,88.31
2023-09-08T00:24:35.167Z,87.42
2023-09-08T00:27:02.458Z,88.08
2023-09-08T00:29:30.000Z,86.75
2023-09-08T00:31:57.237Z,86.70
2023-09-08T00:34:24.783Z,86.77
2023-09-08T00:36:52.354Z,87.43
2023-09-08T00:39:20.672Z,87.67
2023-09-08T00:41:47.633Z,88.03
2023-09-08T00:44:14.957Z,88.22
2023-09-08T00:46:42.032Z,89.65
2023-09-08T00:49:10.223Z,90.05
2023-09-08T00:51:39.039Z,91.61
2023-09-08T00:54:07.670Z,91.50
2023-09-08T00:56:36.443Z,91.79
2023-09-08T00:59:04.043Z,90.60
2023-09-08T01:01:32.129Z,91.37
2023-09-08T01:03:59.638Z,91.64
2023-09-08T01:06:27.540Z,92.14
2023-09-08T01:08:56.258Z,93.56
2023-09-08T01:11:23.768Z,94.50
2023-09-08T01:13:50.704Z,95.36
2023-09-08T01:16:17.814Z,95.43
2023-09-08T01:18:47.457Z,95.83
2023-09-08T01:22:12.946Z,95.59
2023-09-08T01:25:01.572Z,94.82
2023-09-08T01:27:30.801Z,96.02
2023-09-08T01:29:58.537Z,97.64
2023-09-08T01:32:26.054Z,97.43
2023-09-08T01:34:53.571Z,96.93
2023-09-08T01:37:24.518Z,96.75
2023-09-08T01:39:51.629Z,96.84
2023-09-08T01:42:18.634Z,97.72
2023-09-08T01:44:45.556Z,98.52
2023-09-08T01:47:13.605Z,98.48
2023-09-08T01:49:40.721Z,99.07
2023-09-08T01:52:07.732Z,99.68
2023-09-08T01:54:34.796Z,100.00
2023-09-08T01:57:01.763Z,100.00
2023-09-08T01:59:28.758Z,100.00
2023-09-08T02:01:55.727Z,100.00
2023-09-08T02:04:22.995Z,100.00
2023-09-08T02:06:49.953Z,100.00
2023-09-08T02:09:17.269Z,100.00
2023-09-08T02:11:44.291Z,100.00
2023-09-08T02:14:11.320Z,100.00
2023-09-08T02:16:38.284Z,100.00
2023-09-08T02:19:05.374Z,100.00
2023-09-08T02:21:32.585Z,100.00
2023-09-08T02:24:01.201Z,100.00
2023-09-08T02:26:28.735Z,100.00
2023-09-08T02:28:55.846Z,100.00
2023-09-08T02:31:23.325Z,100.00
2023-09-08T02:33:50.476Z,100.00
2023-09-08T02:36:17.454Z,100.00
2023-09-08T02:38:44.423Z,100.00
2023-09-08T02:41:11.367Z,100.00
2023-09-08T02:43:38.381Z,100.00
2023-09-08T02:46:05.381Z,100.00
2023-09-08T02:48:32.651Z,100.00
2023-09-08T02:50:59.671Z,100.00
2023-09-08T02:53:29.614Z,100.00
2023-09-08T02:55:59.145Z,100.00
2023-09-08T02:58:28.894Z,100.00
2023-09-08T03:00:56.390Z,100.00
2023-09-08T03:03:23.502Z,100.00
2023-09-08T03:05:57.649Z,100.00
2023-09-08T03:08:24.738Z,100.00
2023-09-08T03:10:56.834Z,100.00
2023-09-08T03:13:23.823Z,100.00
2023-09-08T03:15:50.844Z,100.00
2023-09-08T03:18:18.833Z,100.00
2023-09-08T03:20:50.970Z,100.00
2023-09-08T03:23:18.356Z,100.00
2023-09-08T03:25:45.486Z,100.00
2023-09-08T03:28:13.208Z,100.00
2023-09-08T03:30:40.418Z,100.00
2023-09-08T03:33:07.548Z,100.00
2023-09-08T03:35:34.726Z,100.00
2023-09-08T03:38:01.718Z,100.00
2023-09-08T03:40:28.709Z,100.00
2023-09-08T03:42:55.806Z,100.00
2023-09-08T03:45:22.747Z,100.00
2023-09-08T03:47:49.900Z,100.00
2023-09-08T03:50:17.164Z,100.00
2023-09-08T03:52:44.126Z,100.00
2023-09-08T03:55:11.109Z,100.00
2023-09-08T03:57:38.174Z,100.00
2023-09-08T04:00:07.638Z,100.00
2023-09-08T04:02:34.683Z,100.00
2023-09-08T04:05:02.188Z,100.00
2023-09-08T04:07:29.342Z,100.00
2023-09-08T04:09:56.296Z,100.00
2023-09-08T04:12:23.428Z,100.00
2023-09-08T04:14:50.522Z,100.00
2023-09-08T04:17:17.474Z,100.00
2023-09-08T04:19:44.840Z,100.00
2023-09-08T04:22:11.797Z,100.00
2023-09-08T04:24:39.337Z,100.00
2023-09-08T04:27:06.332Z,100.00
2023-09-08T04:29:34.107Z,100.00
2023-09-08T04:32:01.213Z,100.00
2023-09-08T04:34:28.185Z,100.00
2023-09-08T04:36:55.157Z,100.00
2023-09-08T04:39:22.376Z,100.00
2023-09-08T04:41:49.978Z,100.00
2023-09-08T04:44:16.994Z,100.00
2023-09-08T04:46:44.270Z,100.00
2023-09-08T04:49:11.331Z,100.00
2023-09-08T04:51:38.352Z,100.00
2023-09-08T04:54:05.408Z,100.00
2023-09-08T04:56:32.364Z,100.00
2023-09-08T04:59:02.014Z,100.00
2023-09-08T05:01:31.139Z,100.00
2023-09-08T05:03:58.292Z,100.00
2023-09-08T05:06:25.860Z,100.00
2023-09-08T05:08:53.048Z,100.00
2023-09-08T05:11:20.618Z,100.00
2023-09-08T05:13:50.982Z,100.00
2023-09-08T05:16:20.070Z,100.00
2023-09-08T05:18:50.505Z,100.00
2023-09-08T05:21:20.335Z,100.00
2023-09-08T05:23:47.749Z,100.00
2023-09-08T05:26:15.476Z,100.00
2023-09-08T05:28:42.861Z,100.00
2023-09-08T05:31:11.183Z,100.00
2023-09-08T05:33:38.782Z,100.00
2023-09-08T05:36:05.965Z,100.00
2023-09-08T05:38:33.162Z,100.00
2023-09-08T05:41:00.424Z,100.00
2023-09-08T05:43:27.370Z,100.00
2023-09-08T05:45:54.301Z,100.00
2023-09-08T05:48:21.330Z,99.65
2023-09-08T05:50:48.669Z,99.46
2023-09-08T05:53:15.891Z,99.74
2023-09-08T05:55:42.831Z,100.00
2023-09-08T05:58:09.873Z,100.00
2023-09-08T06:00:36.808Z,100.00
2023-09-08T06:03:04.720Z,100.00
2023-09-08T06:05:31.781Z,100.00
2023-09-08T06:08:07.072Z,99.89
2023-09-08T06:10:34.526Z,100.00
2023-09-08T06:13:02.746Z,99.87
2023-09-08T06:15:30.518Z,98.04
2023-09-08T06:17:57.785Z,98.46
2023-09-08T06:20:26.005Z,98.60
2023-09-08T06:22:53.029Z,98.74
2023-09-08T06:25:20.004Z,98.21
2023-09-08T06:27:47.130Z,96.43
2023-09-08T06:30:18.978Z,96.20
2023-09-08T06:32:46.072Z,95.60
2023-09-08T06:35:13.256Z,95.99
2023-09-08T06:37:40.625Z,97.14
2023-09-08T06:40:08.207Z,95.62
2023-09-08T06:42:35.343Z,94.90
2023-09-08T06:45:03.012Z,93.92
2023-09-08T06:47:30.400Z,93.48
2023-09-08T06:49:57.606Z,90.75
2023-09-08T06:52:24.702Z,90.67
2023-09-08T06:54:51.759Z,90.37
2023-09-08T06:57:23.002Z,89.58
2023-09-08T06:59:49.977Z,90.63
2023-09-08T07:02:17.110Z,88.85
2023-09-08T07:04:44.230Z,88.37
2023-09-08T07:07:11.646Z,87.95
2023-09-08T07:09:39.259Z,85.84
2023-09-08T07:12:07.379Z,86.37
2023-09-08T07:14:34.456Z,85.77
2023-09-08T07:17:01.753Z,84.25
2023-09-08T07:19:28.968Z,84.99
2023-09-08T07:21:56.063Z,84.55
2023-09-08T07:24:23.141Z,84.66
2023-09-08T07:26:50.241Z,85.61
2023-09-08T07:29:17.348Z,85.44
2023-09-08T07:31:44.336Z,83.02
2023-09-08T07:34:11.385Z,83.52
2023-09-08T07:36:38.575Z,82.09
2023-09-08T07:39:05.787Z,81.24
2023-09-08T07:41:32.805Z,83.08
2023-09-08T07:43:59.829Z,81.96
2023-09-08T07:46:27.064Z,83.20
2023-09-08T07:48:54.224Z,82.89
2023-09-08T07:51:21.269Z,81.11
2023-09-08T07:53:48.299Z,80.75
2023-09-08T07:56:15.428Z,81.94
2023-09-08T07:58:42.592Z,80.48
2023-09-08T08:01:09.778Z,80.60
2023-09-08T08:03:37.183Z,80.49
2023-09-08T08:06:04.365Z,80.57
2023-09-08T08:08:31.693Z,79.74
2023-09-08T08:11:00.209Z,81.13
2023-09-08T08:13:27.213Z,78.54
2023-09-08T08:15:54.314Z,78.75
2023-09-08T08:18:21.654Z,77.29
2023-09-08T08:20:49.604Z,77.35
2023-09-08T08:23:16.604Z,78.04
2023-09-08T08:25:43.603Z,78.65
2023-09-08T08:28:10.697Z,78.91
2023-09-08T08:30:37.733Z,78.40
2023-09-08T08:33:05.524Z,77.02
2023-09-08T08:35:32.613Z,77.38
2023-09-08T08:38:01.468Z,76.92
2023-09-08T08:40:29.464Z,76.94
2023-09-08T08:43:00.051Z,75.88
2023-09-08T08:45:31.541Z,74.23
2023-09-08T08:47:59.686Z,75.07
2023-09-08T08:50:28.034Z,74.83
2023-09-08T08:52:55.258Z,74.83
2023-09-08T08:55:22.978Z,76.04
2023-09-08T08:57:50.772Z,74.24
2023-09-08T09:00:19.714Z,73.31
2023-09-08T09:05:19.534Z,72.55
2023-09-08T09:07:46.589Z,73.48
2023-09-08T09:10:15.093Z,74.86
2023-09-08T09:12:42.096Z,72.90
2023-09-08T09:15:09.828Z,71.96
2023-09-08T09:17:37.558Z,72.62
2023-09-08T09:20:21.202Z,71.87
2023-09-08T09:22:50.239Z,71.65
2023-09-08T09:25:30.173Z,70.18
2023-09-08T09:28:03.512Z,70.28
2023-09-08T09:30:49.739Z,69.95
2023-09-08T09:33:17.312Z,70.64
2023-09-08T09:35:53.092Z,69.76
2023-09-08T09:38:21.941Z,67.52
2023-09-08T09:40:50.297Z,66.74
2023-09-08T09:43:18.579Z,66.68
2023-09-08T09:45:46.332Z,68.65
2023-09-08T09:48:13.740Z,67.40
2023-09-08T09:50:42.850Z,64.99
2023-09-08T09:53:17.852Z,65.31
2023-09-08T09:55:46.420Z,65.26
2023-09-08T09:58:15.422Z,63.73
2023-09-08T10:00:42.960Z,65.97
2023-09-08T10:03:10.705Z,63.79
2023-09-08T10:05:38.645Z,61.90
2023-09-08T10:08:06.447Z,63.90
2023-09-08T10:10:35.736Z,63.99
2023-09-08T10:13:08.443Z,65.94
2023-09-08T10:15:36.888Z,64.75
2023-09-08T10:18:06.844Z,64.07
2023-09-08T10:20:35.869Z,64.56
2023-09-08T10:23:07.796Z,64.92
2023-09-08T10:25:45.851Z,64.78
2023-09-08T10:28:14.385Z,63.30
2023-09-08T10:30:42.541Z,62.22
2023-09-08T10:33:11.186Z,62.06
2023-09-08T10:35:39.227Z,60.97
2023-09-08T10:38:25.590Z,63.48
2023-09-08T10:40:53.886Z,62.36
2023-09-08T10:43:21.416Z,63.13
2023-09-08T10:45:48.930Z,63.02
2023-09-08T10:48:17.056Z,62.58
2023-09-08T10:50:44.575Z,61.48
2023-09-08T10:53:16.882Z,61.13
2023-09-08T10:56:06.887Z,61.00
2023-09-08T10:58:44.667Z,59.11
2023-09-08T11:01:27.771Z,59.46
2023-09-08T11:03:55.408Z,59.38
2023-09-08T11:06:24.449Z,59.75
2023-09-08T11:08:57.217Z,59.82
2023-09-08T11:11:24.556Z,60.09
2023-09-08T11:13:51.762Z,60.67
2023-09-08T11:16:27.726Z,61.65
2023-09-08T11:18:54.867Z,62.13
2023-09-08T11:21:22.303Z,62.04
2023-09-08T11:23:49.508Z,61.92
2023-09-08T11:26:17.846Z,59.07
2023-09-08T11:28:45.263Z,59.99
2023-09-08T11:31:13.930Z,59.82
2023-09-08T11:33:41.387Z,59.40
2023-09-08T11:36:16.381Z,59.87
2023-09-08T11:38:46.302Z,60.98
2023-09-08T11:41:13.791Z,60.51
2023-09-08T11:43:41.104Z,59.08
2023-09-08T11:46:08.621Z,58.45
2023-09-08T11:48:36.645Z,59.01
2023-09-08T11:51:04.106Z,59.10
2023-09-08T11:53:34.642Z,57.51
2023-09-08T11:56:01.875Z,57.65
2023-09-08T11:58:29.263Z,56.75
2023-09-08T12:00:56.628Z,56.56
2023-09-08T12:03:23.739Z,56.97
2023-09-08T12:05:54.342Z,56.71
2023-09-08T12:08:21.510Z,58.04
2023-09-08T12:10:48.477Z,57.64
2023-09-08T12:13:26.222Z,58.00
2023-09-08T12:15:54.006Z,57.51
2023-09-08T12:18:38.558Z,57.22
2023-09-08T12:21:06.853Z,56.88
2023-09-08T12:23:33.781Z,58.38
2023-09-08T12:26:00.818Z,56.74
2023-09-08T12:28:32.941Z,55.59
2023-09-08T12:30:59.983Z,57.21
2023-09-08T12:33:28.034Z,58.08
2023-09-08T12:35:55.006Z,55.88
2023-09-08T12:38:22.216Z,54.38
2023-09-08T12:40:49.676Z,55.01
2023-09-08T12:43:26.963Z,54.22
2023-09-08T12:45:57.363Z,55.60
2023-09-08T12:48:25.267Z,55.10
2023-09-08T12:50:52.215Z,55.96
2023-09-08T12:53:19.797Z,54.17
2023-09-08T12:55:48.015Z,54.41
2023-09-08T12:58:15.357Z,53.42
2023-09-08T13:00:42.370Z,53.68
2023-09-08T13:03:09.699Z,54.45
2023-09-08T13:05:39.592Z,53.42
2023-09-08T13:08:06.875Z,53.39
2023-09-08T13:10:34.487Z,54.49
2023-09-08T13:13:02.167Z,54.76
2023-09-08T13:15:29.522Z,54.67
2023-09-08T13:17:57.142Z,56.24
2023-09-08T13:20:24.240Z,55.29
2023-09-08T13:22:51.269Z,55.53
2023-09-08T13:25:18.312Z,54.70
2023-09-08T13:27:45.379Z,54.83
2023-09-08T13:30:16.910Z,56.07
2023-09-08T13:32:45.782Z,55.86
2023-09-08T13:35:13.160Z,56.13
2023-09-08T13:37:40.571Z,55.06
2023-09-08T13:40:09.304Z,56.50
2023-09-08T13:42:37.184Z,56.12
2023-09-08T13:45:05.627Z,55.80
2023-09-08T13:47:33.440Z,55.55
2023-09-08T13:50:02.788Z,56.31
2023-09-08T13:52:33.356Z,56.14
2023-09-08T13:57:41.488Z,57.78
2023-09-08T14:00:15.608Z,57.67
2023-09-08T14:02:50.649Z,56.99
2023-09-08T14:05:20.901Z,56.77
2023-09-08T14:07:58.912Z,55.71
2023-09-08T14:13:04.088Z,55.15
2023-09-08T14:15:31.140Z,55.38
2023-09-08T14:17:58.172Z,54.99
2023-09-08T14:20:25.187Z,55.88
2023-09-08T14:22:52.172Z,56.06
2023-09-08T14:25:19.212Z,57.15
2023-09-08T14:27:46.142Z,55.06
2023-09-08T14:30:13.321Z,55.63
2023-09-08T14:32:40.728Z,55.46
2023-09-08T14:35:08.141Z,56.30
2023-09-08T14:37:35.160Z,55.27
2023-09-08T14:40:02.260Z,55.34
2023-09-08T14:42:30.304Z,55.49
2023-09-08T14:44:57.240Z,56.47
2023-09-08T14:47:24.506Z,55.39
2023-09-08T14:49:51.479Z,55.14
2023-09-08T14:52:21.656Z,54.38
2023-09-08T14:54:48.679Z,55.66
2023-09-08T14:57:15.699Z,56.45
2023-09-08T14:59:42.686Z,56.82
2023-09-08T15:02:10.901Z,56.34
2023-09-08T15:04:38.218Z,57.41
2023-09-08T15:07:05.592Z,56.91
2023-09-08T15:09:32.708Z,55.51
2023-09-08T15:11:59.648Z,56.82
2023-09-08T15:14:26.632Z,56.92
2023-09-08T15:16:53.644Z,57.10
2023-09-08T15:19:20.863Z,56.23
2023-09-08T15:21:47.799Z,56.50
2023-09-08T15:24:14.737Z,56.81
2023-09-08T15:26:41.703Z,57.74
2023-09-08T15:29:09.428Z,56.42
2023-09-08T15:31:36.653Z,56.23
2023-09-08T15:34:03.726Z,56.64
2023-09-08T15:36:30.852Z,56.88
2023-09-08T15:38:57.773Z,55.34
2023-09-08T15:41:24.761Z,56.87
2023-09-08T15:43:52.631Z,56.89
2023-09-08T15:46:20.723Z,56.90
2023-09-08T15:48:49.100Z,56.91
2023-09-08T15:51:16.527Z,58.41
2023-09-08T15:53:43.537Z,56.53
2023-09-08T15:56:11.082Z,56.38
2023-09-08T15:58:38.348Z,56.48
2023-09-08T16:01:07.985Z,55.63
2023-09-08T16:03:36.655Z,55.65
2023-09-08T16:06:04.187Z,55.89
2023-09-08T16:08:31.250Z,55.46
2023-09-08T16:11:00.612Z,54.76
2023-09-08T16:13:27.591Z,55.66
2023-09-08T16:15:54.546Z,53.71
2023-09-08T16:18:21.513Z,53.18
2023-09-08T16:20:49.310Z,53.75
2023-09-08T16:23:16.315Z,53.79
2023-09-08T16:25:43.320Z,55.33
2023-09-08T16:28:11.158Z,54.63
2023-09-08T16:30:38.124Z,54.30
2023-09-08T16:33:05.427Z,54.34
2023-09-08T16:35:32.505Z,54.46
2023-09-08T16:37:59.559Z,54.79
2023-09-08T16:40:26.983Z,54.98
2023-09-08T16:42:54.016Z,54.29
2023-09-08T16:45:21.051Z,54.03
2023-09-08T16:47:48.026Z,54.43
2023-09-08T16:50:15.010Z,53.99
2023-09-08T16:52:42.050Z,54.51
2023-09-08T16:55:12.459Z,55.67
2023-09-08T16:57:40.430Z,55.11
2023-09-08T17:00:09.220Z,53.97
2023-09-08T17:02:39.438Z,53.63
2023-09-08T17:05:09.216Z,53.33
2023-09-08T17:07:36.350Z,53.00
2023-09-08T17:10:04.728Z,54.18
2023-09-08T17:12:32.667Z,53.13
2023-09-08T17:14:59.714Z,53.57
2023-09-08T17:17:26.816Z,53.81
2023-09-08T17:19:53.859Z,53.35
2023-09-08T17:22:20.976Z,54.20
2023-09-08T17:24:48.026Z,55.23
2023-09-08T17:27:15.053Z,56.17
2023-09-08T17:29:42.018Z,55.84
2023-09-08T17:32:09.978Z,56.80
2023-09-08T17:34:36.911Z,58.34
2023-09-08T17:37:04.501Z,59.01
2023-09-08T17:39:31.765Z,59.45
2023-09-08T17:41:58.848Z,60.08
2023-09-08T17:44:26.085Z,59.99
2023-09-08T17:46:53.331Z,61.25
2023-09-08T17:49:20.369Z,61.61
2023-09-08T17:51:47.443Z,61.99
2023-09-08T17:54:14.489Z,62.54
2023-09-08T17:56:41.654Z,63.28
2023-09-08T17:59:08.885Z,63.89
2023-09-08T18:01:38.147Z,64.43
2023-09-08T18:04:07.200Z,64.93
2023-09-08T18:06:34.348Z,66.00
2023-09-08T18:09:02.014Z,67.17
2023-09-08T18:11:29.363Z,67.31
2023-09-08T18:13:57.111Z,68.71
2023-09-08T18:16:24.480Z,69.64
2023-09-08T18:18:51.577Z,70.88
2023-09-08T18:21:18.673Z,70.95
2023-09-08T18:23:47.531Z,71.08
2023-09-08T18:26:17.353Z,71.68
2023-09-08T18:28:44.687Z,72.07
2023-09-08T18:31:12.505Z,72.24
2023-09-08T18:33:39.885Z,72.64
2023-09-08T18:36:07.791Z,72.75
2023-09-08T18:38:35.291Z,72.85
2023-09-08T18:41:02.530Z,72.19
2023-09-08T18:43:29.709Z,72.03
2023-09-08T18:45:56.727Z,72.51
2023-09-08T18:48:24.403Z,73.13
2023-09-08T18:50:51.644Z,74.03
2023-09-08T18:53:18.695Z,75.37
2023-09-08T18:55:46.004Z,75.31
2023-09-08T18:58:14.465Z,75.06
2023-09-08T19:00:45.994Z,74.87
2023-09-08T19:03:13.753Z,75.83
2023-09-08T19:05:41.884Z,77.11
2023-09-08T19:08:09.740Z,77.85
2023-09-08T19:10:37.318Z,77.99
2023-09-08T19:13:05.521Z,77.60
2023-09-08T19:15:32.848Z,76.94
2023-09-08T19:18:00.061Z,77.33
2023-09-08T19:20:27.191Z,77.61
2023-09-08T19:22:54.890Z,77.43
2023-09-08T19:25:22.578Z,77.77
2023-09-08T19:27:50.759Z,78.98
2023-09-08T19:30:18.441Z,79.56
2023-09-08T19:32:45.893Z,79.19
2023-09-08T19:35:13.118Z,80.24
2023-09-08T19:37:40.352Z,80.88
2023-09-08T19:40:08.613Z,80.13
2023-09-08T19:42:35.672Z,79.64
2023-09-08T19:45:02.852Z,79.55
2023-09-08T19:47:30.041Z,79.87
2023-09-08T19:49:57.241Z,80.36
2023-09-08T19:52:24.285Z,79.83
2023-09-08T19:54:51.323Z,80.45
2023-09-08T19:57:18.405Z,80.58
2023-09-08T19:59:46.441Z,81.29
2023-09-08T20:02:13.427Z,80.91
2023-09-08T20:04:40.742Z,80.92
2023-09-08T20:07:08.025Z,82.23
2023-09-08T20:09:35.048Z,82.12
2023-09-08T20:12:02.443Z,82.25
2023-09-08T20:14:30.683Z,81.80
2023-09-08T20:16:57.683Z,82.21
2023-09-08T20:19:24.566Z,82.90
2023-09-08T20:21:51.607Z,83.75
2023-09-08T20:24:19.408Z,84.98
2023-09-08T20:26:46.316Z,86.77
2023-09-08T20:29:13.750Z,86.79
2023-09-08T20:31:40.872Z,87.58
2023-09-08T20:34:08.201Z,87.77
2023-09-08T20:36:35.201Z,87.42
2023-09-08T20:39:02.191Z,87.71
2023-09-08T20:41:30.429Z,87.67
2023-09-08T20:43:57.530Z,87.24
2023-09-08T20:46:24.584Z,86.63
2023-09-08T20:48:51.626Z,85.97
2023-09-08T20:51:24.054Z,88.94
2023-09-08T20:53:51.076Z,88.42
2023-09-08T20:56:18.082Z,88.96
2023-09-08T20:58:45.092Z,88.13
2023-09-08T21:01:12.226Z,90.20
2023-09-08T21:03:40.297Z,90.97
2023-09-08T21:06:08.435Z,90.79
2023-09-08T21:08:35.385Z,91.84
2023-09-08T21:11:03.538Z,92.63
2023-09-08T21:13:30.770Z,94.19
2023-09-08T21:15:57.804Z,94.46
2023-09-08T21:18:24.827Z,94.28
2023-09-08T21:20:51.889Z,94.07
2023-09-08T21:23:19.291Z,94.28
2023-09-08T21:25:46.293Z,93.75
2023-09-08T21:28:13.357Z,94.51
2023-09-08T21:30:40.753Z,94.25
2023-09-08T21:33:07.859Z,94.53
2023-09-08T21:35:35.040Z,96.93
2023-09-08T21:38:02.060Z,97.10
2023-09-08T21:40:29.776Z,96.98
2023-09-08T21:42:56.816Z,98.54
2023-09-08T21:45:23.929Z,99.28
2023-09-08T21:47:51.664Z,98.75
2023-09-08T21:50:19.219Z,100.00
2023-09-08T21:52:46.510Z,99.75
2023-09-08T21:55:14.103Z,100.00
2023-09-08T21:57:41.340Z,100.00
2023-09-08T22:00:12.619Z,99.64
2023-09-08T22:02:39.831Z,99.64
2023-09-08T22:05:07.464Z,100.00
2023-09-08T22:07:34.643Z,99.27
2023-09-08T22:10:01.727Z,97.61
2023-09-08T22:12:29.258Z,96.39
2023-09-08T22:14:56.767Z,96.27
2023-09-08T22:17:23.911Z,95.55
2023-09-08T22:19:54.473Z,95.67
2023-09-08T22:22:21.541Z,97.54
2023-09-08T22:24:48.541Z,95.85
2023-09-08T22:27:15.773Z,95.26
2023-09-08T22:29:42.774Z,94.46
2023-09-08T22:32:10.066Z,94.78
2023-09-08T22:34:37.218Z,94.69
2023-09-08T22:37:05.027Z,95.59
2023-09-08T22:39:33.611Z,97.21
2023-09-08T22:42:00.591Z,98.13
2023-09-08T22:44:27.640Z,99.83
2023-09-08T22:46:54.694Z,100.00
2023-09-08T22:49:21.644Z,98.95
2023-09-08T22:51:48.720Z,98.27
2023-09-08T22:54:15.781Z,99.31
2023-09-08T22:56:43.009Z,100.00
2023-09-08T22:59:10.703Z,100.00
2023-09-08T23:01:38.106Z,100.00
2023-09-08T23:04:06.201Z,99.97
2023-09-08T23:06:33.365Z,100.00
2023-09-08T23:09:00.376Z,100.00
2023-09-08T23:11:29.626Z,100.00
2023-09-08T23:13:56.725Z,100.00
2023-09-08T23:16:24.327Z,100.00
2023-09-08T23:18:51.324Z,100.00
2023-09-08T23:21:18.317Z,100.00
2023-09-08T23:23:45.252Z,100.00
2023-09-08T23:26:12.165Z,100.00
2023-09-08T23:28:39.116Z,100.00
2023-09-08T23:31:06.125Z,100.00
2023-09-08T23:33:33.155Z,100.00
2023-09-08T23:36:00.277Z,100.00
2023-09-08T23:38:27.317Z,100.00
2023-09-08T23:40:54.229Z,100.00
2023-09-08T23:43:21.249Z,100.00
2023-09-08T23:45:48.353Z,100.00
2023-09-08T23:48:15.671Z,100.00
2023-09-08T23:50:58.223Z,100.00
2023-09-08T23:53:29.680Z,100.00
2023-09-08T23:55:57.060Z,100.00
2023-09-08T23:58:24.136Z,100.00
